Time;durP1;ratioP1;P1;durP2;ratioP2;P2;SDS_P1;SDS_P2;PMS_P1;PMS_P2;Temp;Humidity;BMP_temperature;BMP_pressure;BME280_temperature;BME280_humidity;BME280_pressure;Samples;Min_cycle;Max_cycle;Signal;HPM_P1;HPM_P2
2022/04/11 04:00:28;;;;;;;10.17;2.70;;;-1.00;96.30;;;;;;5920808;23;22720;-75
2022/04/11 04:02:53;;;;;;;3.50;3.20;;;-1.00;96.30;;;;;;4975713;28;20425;-75
2022/04/11 04:05:19;;;;;;;2.00;1.77;;;-1.00;96.30;;;;;;4975895;28;20180;-75
2022/04/11 04:07:44;;;;;;;3.10;2.17;;;-1.20;96.30;;;;;;4992607;28;20170;-74
2022/04/11 04:10:10;;;;;;;3.43;1.97;;;-1.40;96.30;;;;;;4993271;28;20261;-74
2022/04/11 04:12:38;;;;;;;4.67;2.37;;;-1.60;96.30;;;;;;4993062;28;20180;-76
2022/04/11 04:15:04;;;;;;;4.60;2.40;;;-1.80;96.30;;;;;;4993966;28;20169;-77
2022/04/11 04:17:30;;;;;;;3.30;2.00;;;-1.90;96.30;;;;;;4976547;28;20419;-78
2022/04/11 04:19:55;;;;;;;2.33;1.70;;;-2.00;96.30;;;;;;4995134;28;20288;-79
2022/04/11 05:58:28;;;;;;;5.80;3.30;;;10.50;93.20;;;;;;5274235;23;20482;-79
2022/04/11 06:00:55;;;;;;;8.10;3.07;;;9.80;94.00;;;;;;5017371;28;20439;-80
2022/04/11 06:03:20;;;;;;;4.00;2.37;;;10.50;92.20;;;;;;5018807;28;20177;-79
2022/04/11 06:05:46;;;;;;;3.23;2.20;;;10.80;90.10;;;;;;5017407;28;20404;-79
2022/04/11 06:08:11;;;;;;;3.77;2.47;;;10.60;91.30;;;;;;5010119;28;20184;-80
2022/04/11 06:10:38;;;;;;;3.93;2.30;;;11.30;89.30;;;;;;5009774;28;20189;-79
2022/04/11 06:13:04;;;;;;;4.07;2.37;;;11.90;87.80;;;;;;4998348;28;20896;-80
2022/04/11 06:15:29;;;;;;;2.80;2.37;;;12.30;86.20;;;;;;5017785;28;20523;-79
2022/04/11 06:17:55;;;;;;;2.57;2.13;;;13.00;84.10;;;;;;5016129;28;20243;-78
2022/04/11 06:20:20;;;;;;;6.67;2.07;;;13.00;83.80;;;;;;4999937;28;20217;-80
2022/04/11 06:22:46;;;;;;;2.60;1.93;;;13.80;80.40;;;;;;5008459;28;20173;-79
2022/04/11 06:25:12;;;;;;;5.90;2.70;;;13.60;80.80;;;;;;5018771;28;20223;-78
2022/04/11 06:27:37;;;;;;;3.77;1.93;;;13.30;82.20;;;;;;5018222;28;20173;-78
2022/04/11 06:30:04;;;;;;;4.57;1.90;;;13.90;80.20;;;;;;5019020;28;20181;-79
2022/04/11 06:32:31;;;;;;;3.77;1.97;;;14.10;80.10;;;;;;5006747;28;20189;-79
2022/04/11 06:34:58;;;;;;;4.67;2.50;;;13.90;79.10;;;;;;5013742;28;20451;-79
2022/04/11 06:37:24;;;;;;;5.80;2.60;;;13.80;80.10;;;;;;4996438;28;20416;-79
2022/04/11 06:39:50;;;;;;;5.97;2.90;;;14.00;78.90;;;;;;5016115;28;20463;-79
2022/04/11 06:42:16;;;;;;;7.90;5.07;;;13.20;81.60;;;;;;5016856;28;20428;-80
2022/04/11 06:44:42;;;;;;;9.43;5.90;;;13.80;83.20;;;;;;5016810;28;20404;-80
2022/04/11 06:47:08;;;;;;;16.07;5.50;;;14.20;80.70;;;;;;5016706;28;20245;-78
2022/04/11 06:49:34;;;;;;;10.17;5.63;;;14.50;79.20;;;;;;5015729;28;20196;-80
2022/04/11 06:52:00;;;;;;;7.47;4.13;;;15.00;78.80;;;;;;4998485;28;20454;-80
2022/04/11 06:54:25;;;;;;;7.77;4.63;;;15.10;77.40;;;;;;5007374;28;20412;-80
2022/04/11 06:56:51;;;;;;;5.67;3.97;;;14.70;76.50;;;;;;5015497;28;20183;-79
2022/04/11 06:59:16;;;;;;;3.07;1.77;;;12.50;81.80;;;;;;5015737;28;20235;-78
2022/04/11 07:01:42;;;;;;;4.53;2.83;;;13.60;82.80;;;;;;5016288;28;20189;-77
2022/04/11 07:04:08;;;;;;;3.57;1.43;;;15.30;76.10;;;;;;5014238;28;20173;-76
2022/04/11 07:06:34;;;;;;;4.03;1.43;;;16.00;69.90;;;;;;5016539;28;20181;-77
2022/04/11 07:08:59;;;;;;;3.47;1.37;;;16.50;69.80;;;;;;4998581;28;20244;-77
2022/04/11 07:11:25;;;;;;;5.07;1.40;;;17.80;70.40;;;;;;5016756;28;20625;-77
2022/04/11 07:13:50;;;;;;;5.17;1.33;;;18.10;67.70;;;;;;4998852;28;20177;-78
2022/04/11 07:16:16;;;;;;;2.90;1.30;;;18.40;65.20;;;;;;5016760;28;20172;-77
2022/04/11 07:18:41;;;;;;;5.20;1.60;;;19.10;67.50;;;;;;4999176;28;20180;-77
2022/04/11 07:21:07;;;;;;;6.53;1.30;;;18.40;67.50;;;;;;5020589;28;20199;-79
2022/04/11 07:23:32;;;;;;;5.40;1.30;;;17.80;66.00;;;;;;5021504;28;20172;-78
2022/04/11 07:25:58;;;;;;;2.40;1.30;;;16.50;65.70;;;;;;5021282;28;20180;-77
2022/04/11 07:28:23;;;;;;;4.43;1.63;;;17.20;68.20;;;;;;5020239;28;20176;-77
2022/04/11 07:30:49;;;;;;;1.70;1.30;;;18.00;66.20;;;;;;5021400;28;20196;-78
2022/04/11 07:33:14;;;;;;;4.53;1.47;;;17.50;68.60;;;;;;4998674;28;20178;-78
2022/04/11 07:35:40;;;;;;;3.57;1.33;;;17.80;68.00;;;;;;5015581;28;20223;-78
2022/04/11 07:38:05;;;;;;;5.33;1.47;;;17.90;67.70;;;;;;5015288;28;20184;-78
2022/04/11 07:40:31;;;;;;;3.00;1.33;;;17.20;67.10;;;;;;5014897;28;20250;-78
2022/04/11 07:42:57;;;;;;;3.67;1.33;;;17.80;68.20;;;;;;5014880;28;20247;-78
2022/04/11 07:45:23;;;;;;;3.93;1.20;;;16.90;66.30;;;;;;5015033;28;20199;-78
2022/04/11 07:47:49;;;;;;;2.97;1.50;;;17.40;67.40;;;;;;5015062;28;20176;-77
2022/04/11 07:50:15;;;;;;;3.00;1.20;;;17.90;68.80;;;;;;5014832;28;20204;-77
2022/04/11 07:52:43;;;;;;;2.13;1.23;;;17.30;67.10;;;;;;5015269;28;20419;-77
2022/04/11 07:55:11;;;;;;;2.40;1.40;;;17.00;69.90;;;;;;5014982;28;20169;-78
2022/04/11 07:57:38;;;;;;;2.20;1.20;;;17.50;69.20;;;;;;5013504;28;20519;-76
2022/04/11 08:00:06;;;;;;;4.10;1.10;;;17.80;68.60;;;;;;4995583;28;20418;-75
2022/04/11 08:02:32;;;;;;;4.40;1.40;;;18.20;68.20;;;;;;5012837;28;20945;-75
2022/04/11 08:05:05;;;;;;;1.53;1.00;;;18.10;66.40;;;;;;5012690;28;20495;-75
2022/04/11 08:07:32;;;;;;;2.87;1.17;;;16.20;67.50;;;;;;5012948;28;20434;-77
2022/04/11 08:09:58;;;;;;;6.10;1.40;;;16.10;69.90;;;;;;5012795;28;20466;-75
2022/04/11 08:12:24;;;;;;;2.03;1.07;;;16.50;68.90;;;;;;4995200;28;20431;-75
2022/04/11 08:14:49;;;;;;;2.00;1.00;;;16.70;66.50;;;;;;5012775;28;20184;-75
2022/04/11 08:17:15;;;;;;;4.80;1.10;;;16.80;66.60;;;;;;5012871;28;20169;-74
2022/04/11 08:19:40;;;;;;;3.53;1.07;;;16.20;63.70;;;;;;5012400;28;20540;-74
2022/04/11 08:22:06;;;;;;;2.50;1.00;;;16.50;65.80;;;;;;5002419;28;20211;-74
2022/04/11 08:24:32;;;;;;;2.13;1.20;;;16.80;66.60;;;;;;5012747;28;20172;-74
2022/04/11 08:26:58;;;;;;;1.73;0.93;;;16.30;68.20;;;;;;5012635;28;20173;-75
2022/04/11 08:29:25;;;;;;;1.67;0.90;;;16.60;67.00;;;;;;5012369;28;20196;-76
2022/04/11 08:31:50;;;;;;;3.30;1.13;;;16.80;66.90;;;;;;5012459;28;20438;-75
2022/04/11 08:34:16;;;;;;;2.03;1.20;;;16.70;68.30;;;;;;5012465;28;20404;-76
2022/04/11 08:36:43;;;;;;;4.50;1.33;;;17.80;66.60;;;;;;5012452;28;20173;-74
2022/04/11 08:39:09;;;;;;;4.10;1.27;;;17.60;61.30;;;;;;5012232;28;20169;-74
2022/04/11 08:41:36;;;;;;;1.77;1.10;;;17.20;64.50;;;;;;5012258;28;20440;-75
2022/04/11 08:44:04;;;;;;;2.70;1.40;;;17.50;67.00;;;;;;5012304;28;20165;-75
2022/04/11 08:46:31;;;;;;;4.03;1.40;;;17.50;65.30;;;;;;5011705;28;20424;-76
2022/04/11 08:48:59;;;;;;;2.53;1.00;;;17.20;65.80;;;;;;5011916;28;20498;-77
2022/04/11 08:51:25;;;;;;;3.10;1.47;;;17.60;61.70;;;;;;5012330;28;20428;-75
2022/04/11 08:53:52;;;;;;;2.20;1.13;;;17.90;69.30;;;;;;5012278;28;20503;-75
2022/04/11 08:56:17;;;;;;;6.93;1.30;;;17.70;65.10;;;;;;5012491;28;20462;-75
2022/04/11 08:58:43;;;;;;;3.87;1.20;;;17.90;65.90;;;;;;5011837;28;20435;-75
2022/04/11 09:01:08;;;;;;;4.43;1.50;;;17.90;69.30;;;;;;5011845;28;20712;-74
2022/04/11 09:03:34;;;;;;;2.40;1.40;;;17.50;68.10;;;;;;5012144;28;20193;-74
2022/04/11 09:06:10;;;;;;;2.13;1.10;;;17.90;68.80;;;;;;5012195;28;20191;-75
2022/04/11 09:08:52;;;;;;;1.67;1.00;;;18.20;64.40;;;;;;5012184;28;20212;-75
2022/04/11 09:11:35;;;;;;;3.00;1.57;;;17.70;61.40;;;;;;5011947;28;20438;-75
2022/04/11 09:14:03;;;;;;;4.43;1.50;;;17.70;68.00;;;;;;5011984;28;20412;-74
2022/04/11 09:16:52;;;;;;;2.17;1.27;;;17.80;60.80;;;;;;5011870;28;20973;-75
2022/04/11 09:19:23;;;;;;;2.70;1.10;;;17.00;63.70;;;;;;5011671;28;20419;-77
2022/04/11 09:21:50;;;;;;;4.33;1.10;;;16.30;65.80;;;;;;5011851;28;20428;-74
2022/04/11 09:24:19;;;;;;;2.10;0.83;;;15.70;69.30;;;;;;4994090;28;20472;-75
2022/04/11 09:26:45;;;;;;;1.70;1.00;;;16.90;68.60;;;;;;4994150;28;20415;-74
2022/04/11 09:29:10;;;;;;;3.90;1.00;;;17.00;62.10;;;;;;5011724;28;20900;-74
2022/04/11 09:31:36;;;;;;;4.87;1.00;;;15.90;60.10;;;;;;5011538;28;21287;-75
2022/04/11 09:34:16;;;;;;;2.10;0.83;;;16.10;63.10;;;;;;4994147;28;20183;-77
2022/04/11 09:36:50;;;;;;;2.80;1.20;;;16.10;64.20;;;;;;5012201;28;20192;-79
2022/04/11 09:39:20;;;;;;;1.80;0.70;;;16.10;69.90;;;;;;5011748;28;20458;-76
2022/04/11 09:41:46;;;;;;;1.83;1.10;;;16.00;68.30;;;;;;4994718;28;20974;-77
2022/04/11 09:44:25;;;;;;;2.60;0.70;;;16.70;66.70;;;;;;5012081;28;20430;-78
2022/04/11 09:46:53;;;;;;;3.27;1.03;;;16.60;67.20;;;;;;4994148;28;20432;-77
2022/04/11 09:49:19;;;;;;;2.57;0.90;;;16.80;65.20;;;;;;5011574;28;20471;-77
2022/04/11 09:52:05;;;;;;;4.17;1.27;;;17.30;62.50;;;;;;5011908;28;20442;-76
2022/04/11 09:54:31;;;;;;;2.57;0.70;;;17.50;68.90;;;;;;5011914;28;20400;-77
2022/04/11 09:57:01;;;;;;;1.30;1.00;;;18.00;61.30;;;;;;4993365;28;20943;-76
2022/04/11 09:59:27;;;;;;;1.43;0.80;;;17.20;60.10;;;;;;5014687;28;20416;-76
2022/04/11 10:01:54;;;;;;;1.73;0.87;;;15.80;64.70;;;;;;5014639;28;20435;-76
2022/04/11 10:04:20;;;;;;;1.20;0.80;;;16.50;68.70;;;;;;5014877;28;20416;-77
2022/04/11 10:06:46;;;;;;;3.33;1.03;;;15.60;67.00;;;;;;5014513;28;20407;-77
2022/04/11 10:09:16;;;;;;;1.47;0.70;;;16.30;75.80;;;;;;5014154;28;21111;-77
2022/04/11 10:11:43;;;;;;;2.03;0.90;;;16.60;71.90;;;;;;5014350;28;20434;-77
2022/04/11 10:14:15;;;;;;;1.00;0.67;;;16.90;67.50;;;;;;5014503;28;20416;-77
2022/04/11 10:16:42;;;;;;;2.07;0.90;;;17.10;70.50;;;;;;5012444;28;20442;-77
2022/04/11 10:19:09;;;;;;;0.90;0.70;;;16.50;60.00;;;;;;5014778;28;20526;-76
2022/04/11 10:21:39;;;;;;;1.67;0.90;;;15.50;62.40;;;;;;5015284;28;20974;-76
2022/04/11 10:24:07;;;;;;;3.13;1.90;;;13.80;61.80;;;;;;5014419;28;20493;-77
2022/04/11 10:26:47;;;;;;;1.20;0.80;;;12.70;64.90;;;;;;4996972;28;20435;-78
2022/04/11 10:29:36;;;;;;;6.50;0.90;;;12.60;65.60;;;;;;5014564;28;20463;-77
2022/04/11 10:32:08;;;;;;;1.93;0.80;;;12.90;65.00;;;;;;5014647;28;20427;-78
2022/04/11 10:34:51;;;;;;;1.97;0.77;;;13.20;66.80;;;;;;4997078;28;20420;-77
2022/04/11 10:37:18;;;;;;;1.10;0.70;;;13.40;63.60;;;;;;5014682;28;20753;-77
2022/04/11 10:39:45;;;;;;;2.80;0.90;;;13.30;69.80;;;;;;5014410;28;20992;-78
2022/04/11 10:42:11;;;;;;;1.00;0.60;;;13.70;67.90;;;;;;5014449;28;20490;-77
2022/04/11 10:44:51;;;;;;;1.20;0.80;;;14.10;63.50;;;;;;5014421;28;20416;-78
2022/04/11 10:47:21;;;;;;;1.53;0.97;;;14.60;74.80;;;;;;5014196;28;20407;-78
2022/04/11 10:49:55;;;;;;;1.93;1.00;;;15.50;73.80;;;;;;5014303;28;20983;-77
2022/04/11 10:52:33;;;;;;;1.67;0.70;;;15.70;71.60;;;;;;5013800;28;20812;-77
2022/04/11 10:55:15;;;;;;;2.50;0.70;;;14.10;62.30;;;;;;5013575;28;20469;-76
2022/04/11 10:57:45;;;;;;;1.83;0.83;;;14.80;61.20;;;;;;5013527;28;20801;-77
2022/04/11 11:00:11;;;;;;;1.43;0.80;;;;;;;;;;5014061;28;20449;-78
2022/04/11 11:05:48;;;;;;;2.60;0.80;;;15.60;63.80;;;;;;5014480;28;20803;-77
2022/04/11 11:08:13;;;;;;;1.77;0.93;;;15.70;62.40;;;;;;4996184;28;20430;-77
2022/04/11 11:10:56;;;;;;;2.30;0.80;;;15.70;65.90;;;;;;5013265;28;20549;-78
2022/04/11 11:13:30;;;;;;;3.73;0.90;;;14.50;66.30;;;;;;5014029;28;20176;-77
2022/04/11 11:15:58;;;;;;;3.00;0.90;;;13.90;63.20;;;;;;5014183;28;20408;-77
2022/04/11 11:18:24;;;;;;;1.37;0.80;;;13.60;64.40;;;;;;5013684;28;20415;-77
2022/04/11 11:20:54;;;;;;;2.30;0.80;;;13.50;61.60;;;;;;5013890;28;20436;-78
2022/04/11 11:23:31;;;;;;;2.37;0.90;;;12.90;60.90;;;;;;5013742;28;20443;-77
2022/04/11 11:26:12;;;;;;;2.70;0.70;;;13.30;66.30;;;;;;5013834;28;20407;-78
2022/04/11 11:28:41;;;;;;;3.43;0.90;;;13.60;63.30;;;;;;4995816;28;20416;-77
2022/04/11 11:31:06;;;;;;;2.60;0.80;;;14.10;65.00;;;;;;5013323;28;20420;-77
2022/04/11 11:33:32;;;;;;;1.83;0.80;;;12.90;66.10;;;;;;5013515;28;20918;-77
2022/04/11 11:35:58;;;;;;;1.57;0.87;;;13.70;72.70;;;;;;4996146;28;20176;-78
2022/04/11 11:38:27;;;;;;;1.17;0.80;;;14.40;72.40;;;;;;5013001;28;20177;-77
2022/04/11 11:41:01;;;;;;;1.53;0.90;;;15.10;75.20;;;;;;5013014;28;20443;-77
2022/04/11 11:43:29;;;;;;;1.73;0.80;;;15.30;68.20;;;;;;5013263;28;20561;-78
2022/04/11 11:45:59;;;;;;;1.77;0.80;;;14.90;67.30;;;;;;5013785;28;20400;-79
2022/04/11 11:48:27;;;;;;;3.30;0.80;;;14.30;69.70;;;;;;5000475;28;20403;-78
2022/04/11 12:06:34;;;;;;;1.67;0.80;;;11.10;66.90;;;;;;4993680;28;20465;-78
2022/04/11 12:09:04;;;;;;;1.57;0.80;;;12.30;70.70;;;;;;4993622;28;20947;-77
2022/04/11 12:11:30;;;;;;;1.00;0.73;;;12.90;66.70;;;;;;4992893;28;20194;-78
2022/04/11 12:14:00;;;;;;;1.20;0.80;;;13.30;68.00;;;;;;4993336;28;20420;-78
2022/04/11 12:16:26;;;;;;;2.07;0.90;;;13.40;70.70;;;;;;4994652;28;20543;-80
2022/04/11 12:18:53;;;;;;;2.00;0.73;;;13.70;66.80;;;;;;4976177;28;20452;-77
2022/04/11 12:21:28;;;;;;;2.10;1.00;;;13.90;65.70;;;;;;4992532;28;20195;-78
2022/04/11 12:23:54;;;;;;;3.50;1.10;;;13.10;64.20;;;;;;4993469;28;20487;-78
2022/04/11 12:26:31;;;;;;;2.30;0.83;;;13.10;66.90;;;;;;4991646;28;20475;-79
2022/04/11 12:28:57;;;;;;;1.23;0.93;;;14.00;68.70;;;;;;4987651;28;20201;-79
2022/04/11 12:31:23;;;;;;;1.30;0.93;;;13.60;65.50;;;;;;4994054;28;20529;-78
2022/04/11 12:33:52;;;;;;;2.13;1.00;;;13.50;66.20;;;;;;4976211;28;20460;-78
2022/04/11 12:36:20;;;;;;;1.43;0.80;;;13.40;69.50;;;;;;4993546;28;20588;-77
2022/04/11 12:39:13;;;;;;;4.80;1.17;;;14.10;71.20;;;;;;4993615;28;20444;-77
2022/04/11 12:41:44;;;;;;;2.00;0.73;;;14.10;65.70;;;;;;4993910;28;20459;-78
2022/04/11 12:44:18;;;;;;;2.73;1.10;;;14.50;71.00;;;;;;4976046;28;20433;-79
2022/04/11 12:46:57;;;;;;;1.60;1.00;;;14.60;66.60;;;;;;4977146;28;20459;-79
2022/04/11 12:49:24;;;;;;;3.13;1.00;;;14.30;64.90;;;;;;4976281;28;20476;-79
2022/04/11 12:52:05;;;;;;;2.00;0.90;;;13.90;65.70;;;;;;4976653;28;20491;-78
2022/04/11 12:54:41;;;;;;;1.50;0.90;;;13.90;66.10;;;;;;4993863;28;20938;-78
2022/04/11 12:57:08;;;;;;;3.07;1.10;;;13.30;65.00;;;;;;4993102;28;20680;-79
2022/04/11 12:59:35;;;;;;;2.50;1.00;;;14.00;67.10;;;;;;4973682;28;20477;-78
2022/04/11 13:02:07;;;;;;;5.37;1.40;;;14.10;67.10;;;;;;4990859;28;20523;-77
2022/04/11 13:04:34;;;;;;;2.00;0.80;;;13.60;67.70;;;;;;4994198;28;20432;-78
2022/04/11 13:07:00;;;;;;;2.27;1.10;;;14.30;72.70;;;;;;4988790;28;20479;-79
2022/04/11 13:09:25;;;;;;;1.37;0.93;;;15.10;70.00;;;;;;4975785;28;21041;-77
2022/04/11 13:11:52;;;;;;;1.87;1.07;;;15.50;72.20;;;;;;4975953;28;20312;-77
2022/04/11 13:14:18;;;;;;;2.20;1.00;;;15.50;69.60;;;;;;4975551;28;20188;-79
2022/04/11 13:19:28;;;;;;;2.30;1.47;;;15.00;70.90;;;;;;4977094;28;20195;-77
2022/04/11 13:21:54;;;;;;;1.63;1.23;;;15.10;72.50;;;;;;4984906;28;20524;-77
2022/04/11 13:24:20;;;;;;;2.80;1.30;;;15.60;69.20;;;;;;4983480;28;20531;-77
2022/04/11 13:26:45;;;;;;;3.33;1.23;;;14.20;63.50;;;;;;4992589;28;20173;-78
2022/04/11 13:29:11;;;;;;;1.17;1.00;;;14.00;68.40;;;;;;4992465;28;20798;-78
2022/04/11 13:31:37;;;;;;;2.10;1.37;;;13.70;63.50;;;;;;4992720;28;20214;-76
2022/04/11 13:34:03;;;;;;;1.40;0.80;;;13.40;66.00;;;;;;4978152;28;20185;-76
2022/04/11 13:36:29;;;;;;;2.13;1.10;;;13.40;66.40;;;;;;4996022;28;20688;-76
2022/04/11 13:38:55;;;;;;;1.67;1.03;;;13.10;65.60;;;;;;4995823;28;20724;-76
2022/04/11 13:41:21;;;;;;;1.40;0.90;;;13.30;69.40;;;;;;4995799;28;20436;-76
2022/04/11 13:43:47;;;;;;;2.30;1.00;;;13.30;66.00;;;;;;4996085;28;20928;-77
2022/04/11 13:46:12;;;;;;;1.00;0.80;;;12.90;68.90;;;;;;4978498;28;20233;-76
2022/04/11 13:48:38;;;;;;;0.90;0.70;;;12.90;68.30;;;;;;4995444;28;20181;-76
2022/04/11 13:51:03;;;;;;;2.10;1.10;;;12.80;67.60;;;;;;4995814;28;20193;-76
2022/04/11 13:53:29;;;;;;;1.87;1.00;;;12.70;66.50;;;;;;4995755;28;20633;-76
2022/04/11 13:55:58;;;;;;;5.97;1.07;;;12.80;69.20;;;;;;4995547;28;20201;-77
2022/04/11 13:58:24;;;;;;;3.13;1.33;;;13.50;71.80;;;;;;4978023;28;20185;-76
2022/04/11 14:00:49;;;;;;;2.30;1.00;;;14.00;75.30;;;;;;4995373;28;20442;-76
2022/04/11 14:03:15;;;;;;;1.77;1.03;;;14.10;76.00;;;;;;4995612;28;20197;-78
2022/04/11 14:05:42;;;;;;;3.27;1.03;;;14.80;72.40;;;;;;4989916;28;20204;-76
2022/04/11 14:08:08;;;;;;;3.50;1.47;;;15.20;73.30;;;;;;4992594;28;20245;-77
2022/04/11 14:10:34;;;;;;;1.53;1.23;;;15.70;72.10;;;;;;4979054;28;20491;-76
2022/04/11 14:12:59;;;;;;;2.43;1.30;;;15.70;72.40;;;;;;4988118;28;20425;-76
2022/04/11 14:15:25;;;;;;;1.67;1.00;;;16.10;72.30;;;;;;4976141;28;20635;-77
2022/04/11 14:17:50;;;;;;;4.30;1.30;;;16.00;70.70;;;;;;4975823;28;20635;-76
2022/04/11 14:20:16;;;;;;;2.70;1.30;;;16.00;68.30;;;;;;4981818;28;20175;-76
2022/04/11 14:22:42;;;;;;;3.23;1.50;;;15.90;61.40;;;;;;4981835;28;20386;-76
2022/04/11 14:25:09;;;;;;;3.67;1.00;;;14.10;61.70;;;;;;4976590;28;20424;-76
2022/04/11 14:27:35;;;;;;;2.17;1.00;;;13.50;64.80;;;;;;4976377;28;20205;-76
2022/04/11 14:30:00;;;;;;;1.87;0.80;;;14.30;70.00;;;;;;4971050;28;20500;-76
2022/04/11 14:32:26;;;;;;;4.03;1.03;;;14.80;65.00;;;;;;4975665;28;20190;-77
2022/04/11 14:34:52;;;;;;;2.03;1.30;;;14.40;64.80;;;;;;4975800;28;20170;-76
2022/04/11 14:37:17;;;;;;;1.60;0.77;;;14.40;64.20;;;;;;4975654;28;20175;-76
2022/04/11 14:39:43;;;;;;;2.43;0.90;;;14.70;65.40;;;;;;4975618;28;20179;-76
2022/04/11 14:42:08;;;;;;;2.47;0.80;;;15.30;65.80;;;;;;4984151;28;20206;-77
2022/04/11 14:44:34;;;;;;;1.27;0.90;;;15.50;66.10;;;;;;4993794;28;20181;-76
2022/04/11 14:47:00;;;;;;;2.13;1.00;;;15.70;66.70;;;;;;4994862;28;20224;-76
2022/04/11 14:49:25;;;;;;;1.50;0.80;;;15.00;64.80;;;;;;4994456;28;20212;-76
2022/04/11 14:51:51;;;;;;;2.07;0.90;;;15.00;64.80;;;;;;4994976;28;20567;-76
2022/04/11 14:54:16;;;;;;;3.20;1.00;;;14.80;64.90;;;;;;4994747;28;20654;-76
2022/04/11 14:56:42;;;;;;;9.00;3.10;;;15.10;67.10;;;;;;4994733;28;20170;-76
2022/04/11 14:59:08;;;;;;;1.20;0.80;;;14.70;61.20;;;;;;4994517;28;20269;-76
2022/04/11 15:01:33;;;;;;;3.53;0.93;;;15.00;66.40;;;;;;4994634;28;20201;-77
2022/04/11 15:03:59;;;;;;;2.23;0.93;;;15.50;61.90;;;;;;4994512;28;20204;-76
2022/04/11 15:06:25;;;;;;;3.60;1.10;;;15.20;62.60;;;;;;4994525;28;20178;-78
2022/04/11 15:08:51;;;;;;;2.33;1.10;;;15.00;63.00;;;;;;4993998;28;20452;-76
2022/04/11 15:11:16;;;;;;;1.50;0.80;;;14.70;63.60;;;;;;4994536;28;20193;-76
2022/04/11 15:13:43;;;;;;;1.63;0.83;;;14.60;66.60;;;;;;4994463;28;20173;-76
2022/04/11 15:16:09;;;;;;;1.30;0.80;;;14.40;62.90;;;;;;4987421;28;20179;-76
2022/04/11 15:18:35;;;;;;;1.17;0.83;;;14.00;64.80;;;;;;4974599;28;20847;-76
2022/04/11 15:21:03;;;;;;;3.47;0.90;;;14.30;66.00;;;;;;4974619;28;20288;-77
2022/04/11 15:23:30;;;;;;;2.60;1.00;;;14.30;66.80;;;;;;4974820;28;20166;-76
2022/04/11 15:25:56;;;;;;;1.33;0.80;;;14.40;70.60;;;;;;4974595;28;20410;-76
2022/04/11 15:28:22;;;;;;;1.30;0.80;;;14.50;71.70;;;;;;4957089;28;20500;-75
2022/04/11 15:30:48;;;;;;;1.20;0.93;;;14.60;70.70;;;;;;4974609;28;20599;-75
2022/04/11 15:33:13;;;;;;;1.93;1.10;;;14.80;66.70;;;;;;4974938;28;20261;-75
2022/04/11 15:35:39;;;;;;;1.67;1.07;;;14.80;70.20;;;;;;4974429;28;20178;-75
2022/04/11 15:38:05;;;;;;;1.10;0.80;;;14.90;65.40;;;;;;4974199;28;20257;-75
2022/04/11 15:40:31;;;;;;;3.40;0.90;;;15.50;66.10;;;;;;4974464;28;20678;-76
2022/04/11 15:42:57;;;;;;;3.10;1.10;;;15.60;64.30;;;;;;4974449;28;20417;-77
2022/04/11 15:45:24;;;;;;;1.63;1.10;;;14.80;64.60;;;;;;4985606;28;20185;-78
2022/04/11 15:47:50;;;;;;;1.43;0.73;;;14.50;67.80;;;;;;4980323;28;20425;-77
2022/04/11 15:50:16;;;;;;;2.80;1.10;;;14.80;68.80;;;;;;4976018;28;20981;-78
2022/04/11 15:52:43;;;;;;;1.87;1.50;;;14.50;67.50;;;;;;4975569;28;20432;-78
2022/04/11 15:55:09;;;;;;;1.77;1.00;;;14.20;65.80;;;;;;4958028;28;20179;-79
2022/04/11 15:57:34;;;;;;;2.37;1.00;;;13.60;67.20;;;;;;4980924;28;20440;-78
2022/04/11 16:00:01;;;;;;;1.50;1.00;;;13.70;68.00;;;;;;4959669;28;20209;-79
2022/04/11 16:02:27;;;;;;;3.80;2.90;;;13.00;67.40;;;;;;4967742;28;20236;-78
2022/04/11 16:04:53;;;;;;;2.57;1.37;;;13.00;69.20;;;;;;4994440;28;20432;-79
2022/04/11 16:07:18;;;;;;;3.77;1.00;;;13.20;70.70;;;;;;4993253;28;20772;-78
2022/04/11 16:09:44;;;;;;;6.83;1.10;;;13.10;69.40;;;;;;4982160;28;20210;-77
2022/04/11 16:12:10;;;;;;;1.43;0.93;;;13.20;69.60;;;;;;4985088;28;20674;-79
2022/04/11 16:14:36;;;;;;;13.37;1.60;;;13.20;68.90;;;;;;4975884;28;20174;-77
2022/04/11 16:17:01;;;;;;;2.10;0.93;;;13.20;69.30;;;;;;4984846;28;20553;-78
2022/04/11 16:19:27;;;;;;;3.03;1.20;;;13.20;68.80;;;;;;4987433;28;20181;-78
2022/04/11 16:21:53;;;;;;;2.40;0.90;;;13.30;68.40;;;;;;4960985;28;20202;-78
2022/04/11 16:24:18;;;;;;;2.13;0.90;;;13.20;68.70;;;;;;4973541;28;20642;-76
2022/04/11 16:26:47;;;;;;;2.90;1.60;;;13.50;67.40;;;;;;4956345;28;20236;-77
2022/04/11 16:29:14;;;;;;;15.67;1.67;;;13.50;68.00;;;;;;4973030;28;20661;-77
2022/04/11 16:31:39;;;;;;;2.70;1.00;;;13.20;68.70;;;;;;4956080;28;20496;-78
2022/04/11 16:34:05;;;;;;;1.23;0.70;;;13.10;68.30;;;;;;4973537;28;20421;-77
2022/04/11 16:36:30;;;;;;;5.53;1.20;;;13.40;68.00;;;;;;4973547;28;20178;-76
2022/04/11 16:38:56;;;;;;;5.73;1.80;;;13.20;67.70;;;;;;4972982;28;20174;-77
2022/04/11 16:41:21;;;;;;;3.77;2.37;;;13.00;68.00;;;;;;4973371;28;20568;-78
2022/04/11 16:43:47;;;;;;;1.83;0.80;;;12.50;69.80;;;;;;4974477;28;20193;-78
2022/04/11 16:46:13;;;;;;;1.53;0.70;;;12.30;69.60;;;;;;4973599;28;20186;-78
2022/04/11 16:48:39;;;;;;;1.90;1.10;;;12.10;70.00;;;;;;4958603;28;20194;-77
2022/04/11 16:51:05;;;;;;;1.40;0.80;;;12.10;71.70;;;;;;4983598;28;21021;-78
2022/04/11 16:53:30;;;;;;;2.43;1.00;;;12.10;72.80;;;;;;4966867;28;20480;-78
2022/04/11 16:55:56;;;;;;;1.40;1.00;;;12.10;73.00;;;;;;4984163;28;20174;-78
2022/04/11 16:58:23;;;;;;;10.10;9.20;;;11.90;74.30;;;;;;4983162;28;20316;-78
2022/04/11 17:00:49;;;;;;;2.13;1.93;;;11.60;73.80;;;;;;4984103;28;20441;-77
2022/04/11 17:03:14;;;;;;;2.30;2.10;;;11.30;75.30;;;;;;4988516;28;20448;-77
2022/04/11 17:05:40;;;;;;;3.30;2.30;;;10.80;78.00;;;;;;4987654;28;20185;-76
2022/04/11 17:08:06;;;;;;;2.10;1.53;;;10.60;80.00;;;;;;4966497;28;20301;-78
2022/04/11 17:10:33;;;;;;;2.27;1.40;;;10.40;79.60;;;;;;4990685;28;20216;-79
2022/04/11 17:12:59;;;;;;;2.23;1.77;;;10.20;80.20;;;;;;4987418;28;20425;-77
2022/04/11 17:20:54;;;;;;;2.47;1.60;;;9.50;87.00;;;;;;4979382;28;20494;-77
2022/04/11 17:23:20;;;;;;;2.43;1.80;;;9.20;88.70;;;;;;4975611;28;20425;-76
2022/04/11 17:25:45;;;;;;;1.93;1.50;;;8.90;89.40;;;;;;4967489;28;20181;-78
2022/04/11 17:28:11;;;;;;;4.07;2.67;;;8.70;89.60;;;;;;4995655;28;20189;-78
2022/04/11 17:30:37;;;;;;;3.13;2.40;;;8.50;90.30;;;;;;4996028;28;20288;-77
2022/04/11 17:33:02;;;;;;;5.63;3.17;;;8.30;90.50;;;;;;4978666;28;20189;-74
2022/04/11 17:35:27;;;;;;;12.57;8.60;;;8.20;90.30;;;;;;4978735;28;20178;-78
2022/04/11 17:37:53;;;;;;;37.57;32.03;;;8.10;90.20;;;;;;4995430;28;20544;-75
2022/04/11 17:40:20;;;;;;;23.17;20.17;;;7.90;91.00;;;;;;4995899;28;20186;-77
2022/04/11 17:42:45;;;;;;;11.80;10.63;;;7.80;91.60;;;;;;4995967;28;20568;-73
2022/04/11 17:45:11;;;;;;;8.40;6.80;;;7.70;91.70;;;;;;4995569;28;20431;-76
2022/04/11 17:47:38;;;;;;;4.90;4.40;;;7.60;92.20;;;;;;4995582;28;20239;-73
2022/04/11 17:50:06;;;;;;;4.37;3.00;;;7.50;92.50;;;;;;4977470;28;20642;-73
2022/04/11 17:52:31;;;;;;;2.17;1.97;;;7.40;92.90;;;;;;4995603;28;20439;-74
2022/04/11 17:54:57;;;;;;;4.70;1.73;;;7.20;93.60;;;;;;4995572;28;20413;-74
2022/04/11 17:57:23;;;;;;;3.00;1.70;;;7.00;95.00;;;;;;4995672;28;20781;-74
2022/04/11 17:59:48;;;;;;;4.63;2.53;;;6.80;95.70;;;;;;4974889;28;20174;-73
2022/04/11 18:02:14;;;;;;;5.80;4.23;;;6.70;96.30;;;;;;4995420;28;20216;-74
2022/04/11 18:04:39;;;;;;;8.27;6.27;;;6.60;96.30;;;;;;4995264;28;20205;-74
2022/04/11 18:07:05;;;;;;;9.93;8.23;;;6.50;96.30;;;;;;4995428;28;20240;-73
2022/04/11 18:09:30;;;;;;;9.90;6.80;;;6.50;96.30;;;;;;4977159;28;20201;-74
2022/04/11 18:11:57;;;;;;;6.53;5.70;;;6.40;96.30;;;;;;4977465;28;20213;-74
2022/04/11 18:14:24;;;;;;;13.37;10.63;;;6.30;96.30;;;;;;4958585;28;20178;-74
2022/04/11 18:16:52;;;;;;;10.43;7.47;;;6.20;96.30;;;;;;4975927;28;20894;-75
2022/04/11 18:19:18;;;;;;;8.87;4.07;;;6.20;96.30;;;;;;4966035;28;20424;-79
2022/04/11 18:53:22;;;;;;;9.37;5.97;;;4.80;96.30;;;;;;5000391;28;20501;-77
2022/04/11 19:38:20;;;;;;;8.50;5.03;;;3.40;96.30;;;;;;4995721;28;20927;-79
2022/04/11 19:40:46;;;;;;;6.90;4.77;;;3.30;96.30;;;;;;4994373;28;20777;-79
2022/04/11 19:43:12;;;;;;;6.10;4.20;;;3.30;96.30;;;;;;4994865;28;20409;-78
2022/04/11 19:45:38;;;;;;;6.43;4.63;;;3.20;96.30;;;;;;4993947;28;20181;-77
2022/04/11 19:50:48;;;;;;;4.40;2.80;;;3.10;96.30;;;;;;4993298;28;20563;-74
2022/04/11 19:53:14;;;;;;;7.67;4.37;;;3.30;96.30;;;;;;4976026;28;20499;-75
2022/04/11 19:55:41;;;;;;;10.30;6.53;;;3.40;96.30;;;;;;4993262;28;20170;-77
2022/04/11 19:58:08;;;;;;;8.00;7.20;;;3.50;96.30;;;;;;4992930;28;20201;-75
2022/04/11 20:00:34;;;;;;;4.77;3.67;;;3.40;96.30;;;;;;4993138;28;20436;-76
2022/04/11 20:02:59;;;;;;;6.40;4.10;;;3.30;96.30;;;;;;4993195;28;20851;-76
2022/04/11 20:05:27;;;;;;;5.30;3.27;;;3.30;96.30;;;;;;4975864;28;20268;-74
2022/04/11 20:07:54;;;;;;;8.03;3.80;;;3.30;96.30;;;;;;4980450;28;20178;-75